Clarkson, Ohio
Current Conditions -  °F | °C
As of 5:47 PM on Tuesday 25 Nov 2014 (Local Time) from KBVI Reporting Station
Clear Clear  
Wind Chill: 30°   Ceiling: Unl
Heat Index: 36°   Visibility: 10mi
Dew Point: 25°   Wind: 7mph
Humidity: 65%   Direction: 290°WNW
Pressure: 30.1"   Gusts: NA
Location:  40.776°N, 80.6106°W
Report Text: KBVI 252247Z 29006KT 10SM CLR 02/M04 A3010
Loading
Personal Weather Stations






























Interactive Weather Map New forecast layout! Learn more

10-Day Weather Forecast

Advertisements
Track Severe Weather on mobile